sensor_id;sensor_type;location;lat;lon;timestamp;P1;durP1;ratioP1;P2;durP2;ratioP2
16977;SDS011;8605;52.548;4.918;2022-10-31T00:04:27;2.60;;;1.63;;
16977;SDS011;8605;52.548;4.918;2022-10-31T00:09:51;4.70;;;2.70;;
16977;SDS011;8605;52.548;4.918;2022-10-31T00:15:15;2.40;;;2.07;;
16977;SDS011;8605;52.548;4.918;2022-10-31T00:20:38;5.23;;;1.73;;
16977;SDS011;8605;52.548;4.918;2022-10-31T00:26:02;5.03;;;2.27;;
16977;SDS011;8605;52.548;4.918;2022-10-31T00:31:28;1.90;;;1.77;;
16977;SDS011;8605;52.548;4.918;2022-10-31T00:36:51;3.03;;;1.73;;
16977;SDS011;8605;52.548;4.918;2022-10-31T00:42:14;4.23;;;2.03;;
16977;SDS011;8605;52.548;4.918;2022-10-31T00:47:40;2.60;;;2.00;;
16977;SDS011;8605;52.548;4.918;2022-10-31T00:53:03;5.17;;;1.77;;
16977;SDS011;8605;52.548;4.918;2022-10-31T00:58:26;2.67;;;1.67;;
16977;SDS011;8605;52.548;4.918;2022-10-31T01:03:51;3.90;;;2.07;;
16977;SDS011;8605;52.548;4.918;2022-10-31T01:09:14;2.50;;;1.27;;
16977;SDS011;8605;52.548;4.918;2022-10-31T01:14:37;7.23;;;2.37;;
16977;SDS011;8605;52.548;4.918;2022-10-31T01:20:02;5.53;;;2.67;;
16977;SDS011;8605;52.548;4.918;2022-10-31T01:25:26;3.90;;;1.97;;
16977;SDS011;8605;52.548;4.918;2022-10-31T01:30:49;6.00;;;2.27;;
16977;SDS011;8605;52.548;4.918;2022-10-31T01:36:14;7.00;;;2.33;;
16977;SDS011;8605;52.548;4.918;2022-10-31T01:41:40;2.93;;;1.60;;
16977;SDS011;8605;52.548;4.918;2022-10-31T01:47:05;5.37;;;2.67;;
16977;SDS011;8605;52.548;4.918;2022-10-31T01:52:31;5.60;;;2.33;;
16977;SDS011;8605;52.548;4.918;2022-10-31T01:57:57;4.97;;;2.40;;
16977;SDS011;8605;52.548;4.918;2022-10-31T02:03:23;8.40;;;2.70;;
16977;SDS011;8605;52.548;4.918;2022-10-31T02:08:48;10.83;;;2.80;;
16977;SDS011;8605;52.548;4.918;2022-10-31T02:14:11;5.20;;;2.50;;
16977;SDS011;8605;52.548;4.918;2022-10-31T02:19:35;4.77;;;2.23;;
16977;SDS011;8605;52.548;4.918;2022-10-31T02:25:12;4.30;;;2.23;;
16977;SDS011;8605;52.548;4.918;2022-10-31T02:30:56;3.13;;;2.37;;
16977;SDS011;8605;52.548;4.918;2022-10-31T02:36:26;4.50;;;2.83;;
16977;SDS011;8605;52.548;4.918;2022-10-31T02:41:52;3.57;;;2.90;;
16977;SDS011;8605;52.548;4.918;2022-10-31T02:47:27;11.37;;;3.07;;
16977;SDS011;8605;52.548;4.918;2022-10-31T02:52:51;3.67;;;2.30;;
16977;SDS011;8605;52.548;4.918;2022-10-31T02:58:18;11.00;;;2.57;;
16977;SDS011;8605;52.548;4.918;2022-10-31T03:03:54;4.57;;;2.83;;
16977;SDS011;8605;52.548;4.918;2022-10-31T03:09:24;5.47;;;2.63;;
16977;SDS011;8605;52.548;4.918;2022-10-31T03:14:51;8.40;;;3.30;;
16977;SDS011;8605;52.548;4.918;2022-10-31T03:20:18;6.17;;;3.27;;
16977;SDS011;8605;52.548;4.918;2022-10-31T03:25:43;3.53;;;2.37;;
16977;SDS011;8605;52.548;4.918;2022-10-31T03:31:06;4.53;;;3.40;;
16977;SDS011;8605;52.548;4.918;2022-10-31T03:36:35;5.90;;;3.80;;
16977;SDS011;8605;52.548;4.918;2022-10-31T03:42:02;2.33;;;2.13;;
16977;SDS011;8605;52.548;4.918;2022-10-31T03:47:28;7.97;;;3.50;;
16977;SDS011;8605;52.548;4.918;2022-10-31T03:52:53;6.37;;;3.90;;
16977;SDS011;8605;52.548;4.918;2022-10-31T03:58:19;4.70;;;3.50;;
16977;SDS011;8605;52.548;4.918;2022-10-31T04:03:44;4.10;;;3.53;;
16977;SDS011;8605;52.548;4.918;2022-10-31T04:09:10;4.93;;;4.03;;
16977;SDS011;8605;52.548;4.918;2022-10-31T04:14:36;7.77;;;4.23;;
16977;SDS011;8605;52.548;4.918;2022-10-31T04:20:01;9.90;;;5.50;;
16977;SDS011;8605;52.548;4.918;2022-10-31T04:25:27;8.67;;;4.97;;
16977;SDS011;8605;52.548;4.918;2022-10-31T04:30:50;6.73;;;5.00;;
16977;SDS011;8605;52.548;4.918;2022-10-31T04:36:13;7.40;;;5.10;;
16977;SDS011;8605;52.548;4.918;2022-10-31T04:41:38;6.87;;;5.47;;
16977;SDS011;8605;52.548;4.918;2022-10-31T04:47:10;8.07;;;5.60;;
16977;SDS011;8605;52.548;4.918;2022-10-31T04:52:38;11.57;;;5.27;;
16977;SDS011;8605;52.548;4.918;2022-10-31T04:58:03;8.10;;;4.73;;
16977;SDS011;8605;52.548;4.918;2022-10-31T05:03:27;10.27;;;5.67;;
16977;SDS011;8605;52.548;4.918;2022-10-31T05:08:50;7.93;;;5.10;;
16977;SDS011;8605;52.548;4.918;2022-10-31T05:14:15;9.60;;;6.23;;
16977;SDS011;8605;52.548;4.918;2022-10-31T05:20:04;12.17;;;6.87;;
16977;SDS011;8605;52.548;4.918;2022-10-31T05:25:48;16.37;;;8.10;;
16977;SDS011;8605;52.548;4.918;2022-10-31T05:31:13;10.97;;;7.10;;
16977;SDS011;8605;52.548;4.918;2022-10-31T05:36:36;13.03;;;8.00;;
16977;SDS011;8605;52.548;4.918;2022-10-31T05:42:16;16.10;;;7.80;;
16977;SDS011;8605;52.548;4.918;2022-10-31T05:47:40;15.13;;;8.43;;
16977;SDS011;8605;52.548;4.918;2022-10-31T05:53:22;17.73;;;9.67;;
16977;SDS011;8605;52.548;4.918;2022-10-31T05:58:45;17.70;;;9.60;;
16977;SDS011;8605;52.548;4.918;2022-10-31T06:04:10;20.17;;;11.13;;
16977;SDS011;8605;52.548;4.918;2022-10-31T06:09:33;17.23;;;10.53;;
16977;SDS011;8605;52.548;4.918;2022-10-31T06:14:56;21.53;;;11.90;;
16977;SDS011;8605;52.548;4.918;2022-10-31T06:20:20;22.77;;;11.60;;
16977;SDS011;8605;52.548;4.918;2022-10-31T06:25:55;19.13;;;11.97;;
16977;SDS011;8605;52.548;4.918;2022-10-31T06:31:18;21.50;;;12.37;;
16977;SDS011;8605;52.548;4.918;2022-10-31T06:36:42;23.10;;;11.87;;
16977;SDS011;8605;52.548;4.918;2022-10-31T06:42:06;22.77;;;11.80;;
16977;SDS011;8605;52.548;4.918;2022-10-31T06:47:30;23.77;;;12.93;;
16977;SDS011;8605;52.548;4.918;2022-10-31T06:53:07;25.43;;;12.20;;
16977;SDS011;8605;52.548;4.918;2022-10-31T06:58:35;20.30;;;14.13;;
16977;SDS011;8605;52.548;4.918;2022-10-31T07:04:01;18.00;;;11.53;;
16977;SDS011;8605;52.548;4.918;2022-10-31T07:09:29;19.00;;;11.57;;
16977;SDS011;8605;52.548;4.918;2022-10-31T07:14:56;29.33;;;13.73;;
16977;SDS011;8605;52.548;4.918;2022-10-31T07:20:19;28.67;;;12.43;;
16977;SDS011;8605;52.548;4.918;2022-10-31T07:25:45;20.23;;;11.33;;
16977;SDS011;8605;52.548;4.918;2022-10-31T07:31:13;22.13;;;12.23;;
16977;SDS011;8605;52.548;4.918;2022-10-31T07:36:36;21.60;;;12.57;;
16977;SDS011;8605;52.548;4.918;2022-10-31T07:42:00;21.03;;;11.97;;
16977;SDS011;8605;52.548;4.918;2022-10-31T07:47:27;23.43;;;12.20;;
16977;SDS011;8605;52.548;4.918;2022-10-31T07:53:09;26.87;;;12.67;;
16977;SDS011;8605;52.548;4.918;2022-10-31T08:04:28;28.93;;;13.17;;
16977;SDS011;8605;52.548;4.918;2022-10-31T08:10:10;28.13;;;14.30;;
16977;SDS011;8605;52.548;4.918;2022-10-31T08:15:36;31.80;;;13.90;;
16977;SDS011;8605;52.548;4.918;2022-10-31T08:21:02;23.37;;;14.50;;
16977;SDS011;8605;52.548;4.918;2022-10-31T08:26:25;26.90;;;14.10;;
16977;SDS011;8605;52.548;4.918;2022-10-31T08:31:51;23.27;;;13.60;;
16977;SDS011;8605;52.548;4.918;2022-10-31T08:37:40;24.30;;;13.63;;
16977;SDS011;8605;52.548;4.918;2022-10-31T08:43:04;28.27;;;14.63;;
16977;SDS011;8605;52.548;4.918;2022-10-31T08:48:30;26.10;;;13.97;;
16977;SDS011;8605;52.548;4.918;2022-10-31T08:53:55;22.40;;;12.97;;
16977;SDS011;8605;52.548;4.918;2022-10-31T08:59:27;19.13;;;11.97;;
16977;SDS011;8605;52.548;4.918;2022-10-31T09:05:29;26.90;;;13.63;;
16977;SDS011;8605;52.548;4.918;2022-10-31T09:10:55;29.23;;;13.77;;
16977;SDS011;8605;52.548;4.918;2022-10-31T09:16:38;22.87;;;12.60;;
16977;SDS011;8605;52.548;4.918;2022-10-31T09:22:10;24.00;;;13.60;;
16977;SDS011;8605;52.548;4.918;2022-10-31T09:27:33;30.40;;;13.23;;
16977;SDS011;8605;52.548;4.918;2022-10-31T09:32:57;22.33;;;12.13;;
16977;SDS011;8605;52.548;4.918;2022-10-31T09:38:22;23.83;;;10.93;;
16977;SDS011;8605;52.548;4.918;2022-10-31T09:43:46;27.03;;;12.43;;
16977;SDS011;8605;52.548;4.918;2022-10-31T09:49:23;24.53;;;11.63;;
16977;SDS011;8605;52.548;4.918;2022-10-31T09:54:56;20.97;;;11.70;;
16977;SDS011;8605;52.548;4.918;2022-10-31T10:00:21;15.87;;;8.90;;
16977;SDS011;8605;52.548;4.918;2022-10-31T10:05:46;18.90;;;10.30;;
16977;SDS011;8605;52.548;4.918;2022-10-31T10:11:30;12.70;;;6.87;;
16977;SDS011;8605;52.548;4.918;2022-10-31T10:17:14;14.23;;;6.90;;
16977;SDS011;8605;52.548;4.918;2022-10-31T10:22:47;26.50;;;9.30;;
16977;SDS011;8605;52.548;4.918;2022-10-31T10:28:17;14.13;;;8.23;;
16977;SDS011;8605;52.548;4.918;2022-10-31T10:33:44;13.23;;;6.77;;
16977;SDS011;8605;52.548;4.918;2022-10-31T10:39:14;14.03;;;7.50;;
16977;SDS011;8605;52.548;4.918;2022-10-31T10:44:43;16.17;;;8.53;;
16977;SDS011;8605;52.548;4.918;2022-10-31T10:50:27;16.33;;;8.50;;
16977;SDS011;8605;52.548;4.918;2022-10-31T10:56:16;11.50;;;7.23;;
16977;SDS011;8605;52.548;4.918;2022-10-31T11:01:42;12.53;;;6.57;;
16977;SDS011;8605;52.548;4.918;2022-10-31T11:07:06;16.07;;;6.80;;
16977;SDS011;8605;52.548;4.918;2022-10-31T11:12:32;13.47;;;6.67;;
16977;SDS011;8605;52.548;4.918;2022-10-31T11:17:57;13.93;;;6.33;;
16977;SDS011;8605;52.548;4.918;2022-10-31T11:23:27;9.40;;;6.00;;
16977;SDS011;8605;52.548;4.918;2022-10-31T11:28:57;5.45;;;3.72;;
16977;SDS011;8605;52.548;4.918;2022-10-31T11:34:25;8.20;;;3.40;;
16977;SDS011;8605;52.548;4.918;2022-10-31T11:39:52;6.40;;;2.97;;
16977;SDS011;8605;52.548;4.918;2022-10-31T11:45:17;3.00;;;2.42;;
16977;SDS011;8605;52.548;4.918;2022-10-31T11:50:47;4.63;;;2.80;;
16977;SDS011;8605;52.548;4.918;2022-10-31T11:56:12;3.70;;;2.55;;
16977;SDS011;8605;52.548;4.918;2022-10-31T12:01:39;8.20;;;2.60;;
16977;SDS011;8605;52.548;4.918;2022-10-31T12:07:07;7.57;;;4.10;;
16977;SDS011;8605;52.548;4.918;2022-10-31T12:18:29;7.47;;;3.67;;
16977;SDS011;8605;52.548;4.918;2022-10-31T12:24:05;10.40;;;4.40;;
16977;SDS011;8605;52.548;4.918;2022-10-31T12:29:42;9.40;;;4.70;;
16977;SDS011;8605;52.548;4.918;2022-10-31T12:35:20;10.40;;;5.18;;
16977;SDS011;8605;52.548;4.918;2022-10-31T12:40:56;13.13;;;5.32;;
16977;SDS011;8605;52.548;4.918;2022-10-31T12:46:31;9.17;;;4.87;;
16977;SDS011;8605;52.548;4.918;2022-10-31T12:52:08;22.95;;;7.65;;
16977;SDS011;8605;52.548;4.918;2022-10-31T12:57:39;17.85;;;5.75;;
16977;SDS011;8605;52.548;4.918;2022-10-31T13:08:47;16.13;;;7.13;;
16977;SDS011;8605;52.548;4.918;2022-10-31T13:14:15;13.90;;;7.18;;
16977;SDS011;8605;52.548;4.918;2022-10-31T13:19:43;17.13;;;8.03;;
16977;SDS011;8605;52.548;4.918;2022-10-31T13:25:09;18.73;;;9.65;;
16977;SDS011;8605;52.548;4.918;2022-10-31T13:30:36;21.70;;;6.95;;
16977;SDS011;8605;52.548;4.918;2022-10-31T13:36:05;20.70;;;7.97;;
16977;SDS011;8605;52.548;4.918;2022-10-31T13:41:35;18.15;;;8.15;;
16977;SDS011;8605;52.548;4.918;2022-10-31T13:47:20;19.45;;;8.93;;
16977;SDS011;8605;52.548;4.918;2022-10-31T13:52:44;15.55;;;7.10;;
16977;SDS011;8605;52.548;4.918;2022-10-31T13:58:20;13.18;;;6.43;;
16977;SDS011;8605;52.548;4.918;2022-10-31T14:03:46;18.40;;;7.63;;
16977;SDS011;8605;52.548;4.918;2022-10-31T14:09:31;20.45;;;9.27;;
16977;SDS011;8605;52.548;4.918;2022-10-31T14:14:56;18.55;;;9.73;;
16977;SDS011;8605;52.548;4.918;2022-10-31T14:20:25;16.58;;;9.40;;
16977;SDS011;8605;52.548;4.918;2022-10-31T14:26:05;20.08;;;7.93;;
16977;SDS011;8605;52.548;4.918;2022-10-31T14:31:55;23.70;;;7.65;;
16977;SDS011;8605;52.548;4.918;2022-10-31T14:37:31;16.10;;;7.43;;
16977;SDS011;8605;52.548;4.918;2022-10-31T14:49:16;10.93;;;4.97;;
16977;SDS011;8605;52.548;4.918;2022-10-31T14:54:49;11.00;;;5.37;;
16977;SDS011;8605;52.548;4.918;2022-10-31T15:00:17;10.48;;;6.53;;
16977;SDS011;8605;52.548;4.918;2022-10-31T15:05:45;13.80;;;6.47;;
16977;SDS011;8605;52.548;4.918;2022-10-31T15:11:11;20.47;;;8.83;;
16977;SDS011;8605;52.548;4.918;2022-10-31T15:16:37;15.03;;;7.50;;
16977;SDS011;8605;52.548;4.918;2022-10-31T15:22:02;26.13;;;9.30;;
16977;SDS011;8605;52.548;4.918;2022-10-31T15:27:35;18.63;;;9.93;;
16977;SDS011;8605;52.548;4.918;2022-10-31T15:33:02;25.90;;;11.57;;
16977;SDS011;8605;52.548;4.918;2022-10-31T15:38:28;23.97;;;9.13;;
16977;SDS011;8605;52.548;4.918;2022-10-31T15:43:53;18.73;;;8.80;;
16977;SDS011;8605;52.548;4.918;2022-10-31T15:49:19;22.67;;;9.63;;
16977;SDS011;8605;52.548;4.918;2022-10-31T15:54:53;28.47;;;9.53;;
16977;SDS011;8605;52.548;4.918;2022-10-31T16:00:27;18.23;;;10.03;;
16977;SDS011;8605;52.548;4.918;2022-10-31T16:05:53;13.93;;;8.00;;
16977;SDS011;8605;52.548;4.918;2022-10-31T16:11:18;18.97;;;8.97;;
16977;SDS011;8605;52.548;4.918;2022-10-31T16:16:47;15.60;;;7.63;;
16977;SDS011;8605;52.548;4.918;2022-10-31T16:22:14;12.57;;;6.93;;
16977;SDS011;8605;52.548;4.918;2022-10-31T16:27:47;23.60;;;8.50;;
16977;SDS011;8605;52.548;4.918;2022-10-31T16:33:25;14.27;;;7.83;;
16977;SDS011;8605;52.548;4.918;2022-10-31T16:38:50;16.83;;;7.73;;
16977;SDS011;8605;52.548;4.918;2022-10-31T16:44:14;23.27;;;9.47;;
16977;SDS011;8605;52.548;4.918;2022-10-31T16:49:45;12.67;;;8.40;;
16977;SDS011;8605;52.548;4.918;2022-10-31T16:55:10;19.50;;;8.50;;
16977;SDS011;8605;52.548;4.918;2022-10-31T17:00:34;16.40;;;8.70;;
16977;SDS011;8605;52.548;4.918;2022-10-31T17:06:00;22.63;;;11.00;;
16977;SDS011;8605;52.548;4.918;2022-10-31T17:11:23;24.87;;;7.23;;
16977;SDS011;8605;52.548;4.918;2022-10-31T17:16:48;16.10;;;8.97;;
16977;SDS011;8605;52.548;4.918;2022-10-31T17:22:12;23.23;;;8.83;;
16977;SDS011;8605;52.548;4.918;2022-10-31T17:27:36;17.43;;;8.77;;
16977;SDS011;8605;52.548;4.918;2022-10-31T17:33:04;18.60;;;8.67;;
16977;SDS011;8605;52.548;4.918;2022-10-31T17:38:28;18.37;;;8.87;;
16977;SDS011;8605;52.548;4.918;2022-10-31T17:43:53;13.97;;;7.93;;
16977;SDS011;8605;52.548;4.918;2022-10-31T17:49:17;17.67;;;8.20;;
16977;SDS011;8605;52.548;4.918;2022-10-31T17:54:41;16.63;;;8.13;;
16977;SDS011;8605;52.548;4.918;2022-10-31T18:00:05;18.03;;;8.70;;
16977;SDS011;8605;52.548;4.918;2022-10-31T18:05:32;15.27;;;7.27;;
16977;SDS011;8605;52.548;4.918;2022-10-31T18:10:56;18.57;;;9.17;;
16977;SDS011;8605;52.548;4.918;2022-10-31T18:16:20;19.10;;;9.60;;
16977;SDS011;8605;52.548;4.918;2022-10-31T18:21:44;22.13;;;10.20;;
16977;SDS011;8605;52.548;4.918;2022-10-31T18:27:08;24.93;;;9.77;;
16977;SDS011;8605;52.548;4.918;2022-10-31T18:32:31;21.23;;;9.00;;
16977;SDS011;8605;52.548;4.918;2022-10-31T18:37:55;24.73;;;10.33;;
16977;SDS011;8605;52.548;4.918;2022-10-31T18:43:25;32.80;;;10.70;;
16977;SDS011;8605;52.548;4.918;2022-10-31T18:48:48;24.97;;;9.57;;
16977;SDS011;8605;52.548;4.918;2022-10-31T18:54:11;19.47;;;10.67;;
16977;SDS011;8605;52.548;4.918;2022-10-31T18:59:36;24.13;;;12.40;;
16977;SDS011;8605;52.548;4.918;2022-10-31T19:04:59;25.10;;;10.37;;
16977;SDS011;8605;52.548;4.918;2022-10-31T19:10:22;27.37;;;10.23;;
16977;SDS011;8605;52.548;4.918;2022-10-31T19:15:46;27.90;;;12.17;;
16977;SDS011;8605;52.548;4.918;2022-10-31T19:21:10;29.43;;;13.93;;
16977;SDS011;8605;52.548;4.918;2022-10-31T19:26:34;26.03;;;11.83;;
16977;SDS011;8605;52.548;4.918;2022-10-31T19:31:59;23.03;;;11.57;;
16977;SDS011;8605;52.548;4.918;2022-10-31T19:37:22;26.13;;;11.03;;
16977;SDS011;8605;52.548;4.918;2022-10-31T19:42:45;25.43;;;12.77;;
16977;SDS011;8605;52.548;4.918;2022-10-31T19:48:09;23.33;;;10.63;;
16977;SDS011;8605;52.548;4.918;2022-10-31T19:53:33;21.13;;;10.17;;
16977;SDS011;8605;52.548;4.918;2022-10-31T19:58:56;28.20;;;10.97;;
16977;SDS011;8605;52.548;4.918;2022-10-31T20:04:22;28.97;;;11.87;;
16977;SDS011;8605;52.548;4.918;2022-10-31T20:09:45;30.80;;;11.87;;
16977;SDS011;8605;52.548;4.918;2022-10-31T20:15:09;26.60;;;11.63;;
16977;SDS011;8605;52.548;4.918;2022-10-31T20:20:33;22.93;;;9.73;;
16977;SDS011;8605;52.548;4.918;2022-10-31T20:25:56;34.83;;;10.63;;
16977;SDS011;8605;52.548;4.918;2022-10-31T20:31:20;24.10;;;10.43;;
16977;SDS011;8605;52.548;4.918;2022-10-31T20:36:45;21.13;;;10.57;;
16977;SDS011;8605;52.548;4.918;2022-10-31T20:42:08;21.07;;;9.37;;
16977;SDS011;8605;52.548;4.918;2022-10-31T20:47:31;16.13;;;9.33;;
16977;SDS011;8605;52.548;4.918;2022-10-31T20:52:56;19.27;;;9.57;;
16977;SDS011;8605;52.548;4.918;2022-10-31T20:58:19;22.07;;;9.97;;
16977;SDS011;8605;52.548;4.918;2022-10-31T21:03:42;21.23;;;9.77;;
16977;SDS011;8605;52.548;4.918;2022-10-31T21:09:07;19.50;;;8.60;;
16977;SDS011;8605;52.548;4.918;2022-10-31T21:14:30;20.70;;;7.90;;
16977;SDS011;8605;52.548;4.918;2022-10-31T21:19:53;15.17;;;8.20;;
16977;SDS011;8605;52.548;4.918;2022-10-31T21:25:20;13.20;;;7.37;;
16977;SDS011;8605;52.548;4.918;2022-10-31T21:30:44;13.20;;;6.37;;
16977;SDS011;8605;52.548;4.918;2022-10-31T21:36:09;16.23;;;5.93;;
16977;SDS011;8605;52.548;4.918;2022-10-31T21:41:34;12.93;;;5.40;;
16977;SDS011;8605;52.548;4.918;2022-10-31T21:46:57;12.57;;;5.37;;
16977;SDS011;8605;52.548;4.918;2022-10-31T21:52:20;10.67;;;4.73;;
16977;SDS011;8605;52.548;4.918;2022-10-31T21:57:45;15.73;;;5.33;;
16977;SDS011;8605;52.548;4.918;2022-10-31T22:03:08;8.77;;;4.10;;
16977;SDS011;8605;52.548;4.918;2022-10-31T22:08:31;10.47;;;4.10;;
16977;SDS011;8605;52.548;4.918;2022-10-31T22:13:57;7.70;;;4.00;;
16977;SDS011;8605;52.548;4.918;2022-10-31T22:19:21;9.67;;;4.47;;
16977;SDS011;8605;52.548;4.918;2022-10-31T22:24:44;7.83;;;4.37;;
16977;SDS011;8605;52.548;4.918;2022-10-31T22:30:09;7.83;;;3.40;;
16977;SDS011;8605;52.548;4.918;2022-10-31T22:35:33;6.57;;;3.70;;
16977;SDS011;8605;52.548;4.918;2022-10-31T22:40:58;12.23;;;4.40;;
16977;SDS011;8605;52.548;4.918;2022-10-31T22:46:23;9.40;;;4.43;;
16977;SDS011;8605;52.548;4.918;2022-10-31T22:51:49;13.43;;;4.57;;
16977;SDS011;8605;52.548;4.918;2022-10-31T22:57:12;7.73;;;4.00;;
16977;SDS011;8605;52.548;4.918;2022-10-31T23:02:37;10.23;;;3.90;;
16977;SDS011;8605;52.548;4.918;2022-10-31T23:08:00;8.57;;;5.00;;
16977;SDS011;8605;52.548;4.918;2022-10-31T23:13:23;7.43;;;3.93;;
16977;SDS011;8605;52.548;4.918;2022-10-31T23:19:06;10.23;;;3.40;;
16977;SDS011;8605;52.548;4.918;2022-10-31T23:24:31;7.47;;;4.17;;
16977;SDS011;8605;52.548;4.918;2022-10-31T23:29:55;4.90;;;3.27;;
16977;SDS011;8605;52.548;4.918;2022-10-31T23:35:22;6.93;;;4.10;;
16977;SDS011;8605;52.548;4.918;2022-10-31T23:40:45;6.20;;;3.20;;
16977;SDS011;8605;52.548;4.918;2022-10-31T23:46:08;8.23;;;4.00;;
16977;SDS011;8605;52.548;4.918;2022-10-31T23:51:32;8.40;;;4.47;;
16977;SDS011;8605;52.548;4.918;2022-10-31T23:56:56;7.57;;;3.60;;
